Time;durP1;ratioP1;P1;durP2;ratioP2;P2;SDS_P1;SDS_P2;PMS_P1;PMS_P2;Temp;Humidity;BMP_temperature;BMP_pressure;BME280_temperature;BME280_humidity;BME280_pressure;Samples;Min_cycle;Max_cycle;Signal;HPM_P1;HPM_P2
2023/05/26 01:01:39;;;;;;;48.05;12.02;;;;;;;;;;2308269;23;20031;-71
2023/05/26 01:03:00;;;;;;;46.90;12.68;;;;;;;;;;2012527;29;20045;-71
2023/05/26 01:04:21;;;;;;;35.50;11.80;;;;;;;;;;2012586;29;20061;-71
2023/05/26 01:05:42;;;;;;;34.30;12.02;;;;;;;;;;2015061;29;20044;-71
2023/05/26 01:07:05;;;;;;;36.35;10.95;;;;;;;;;;2014367;29;20037;-72
2023/05/26 01:08:26;;;;;;;29.70;9.70;;;;;;;;;;2009172;29;20033;-71
2023/05/26 01:09:48;;;;;;;31.70;10.93;;;;;;;;;;2011440;29;20404;-71
2023/05/26 01:11:13;;;;;;;37.97;10.98;;;;;;;;;;2013173;29;20430;-71
2023/05/26 01:12:56;;;;;;;30.02;11.38;;;;;;;;;;2005660;29;20090;-71
2023/05/26 01:14:17;;;;;;;28.45;9.48;;;;;;;;;;2015013;29;20052;-71
2023/05/26 01:16:01;;;;;;;34.97;10.55;;;;;;;;;;2015249;29;20045;-71
2023/05/26 01:17:26;;;;;;;33.13;11.63;;;;;;;;;;2013605;29;20033;-71
2023/05/26 01:19:07;;;;;;;30.52;11.73;;;;;;;;;;2014641;29;20089;-71
2023/05/26 01:20:27;;;;;;;35.00;11.35;;;;;;;;;;2013309;29;20053;-71
2023/05/26 01:21:49;;;;;;;38.55;11.65;;;;;;;;;;2012878;29;20037;-71
2023/05/26 01:23:32;;;;;;;33.85;11.77;;;;;;;;;;2013885;29;20036;-71
2023/05/26 01:25:00;;;;;;;36.55;11.57;;;;;;;;;;1992430;29;20045;-71
2023/05/26 01:26:24;;;;;;;36.72;12.32;;;;;;;;;;2011294;29;20092;-71
2023/05/26 01:28:08;;;;;;;37.78;11.85;;;;;;;;;;2014976;29;20033;-71
2023/05/26 01:29:30;;;;;;;37.67;12.18;;;;;;;;;;2021703;29;20599;-72
2023/05/26 01:30:51;;;;;;;40.75;13.25;;;;;;;;;;2013327;29;20148;-71
2023/05/26 01:32:14;;;;;;;42.53;12.60;;;;;;;;;;2008810;29;20037;-71
2023/05/26 01:33:35;;;;;;;41.35;11.52;;;;;;;;;;2013679;29;20441;-71
2023/05/26 01:34:56;;;;;;;35.92;12.43;;;;;;;;;;2013359;29;20045;-71
2023/05/26 01:36:17;;;;;;;43.50;12.00;;;;;;;;;;2006887;29;20122;-71
2023/05/26 01:37:38;;;;;;;28.65;10.13;;;;;;;;;;2012966;29;20048;-71
2023/05/26 01:38:59;;;;;;;30.90;10.82;;;;;;;;;;2001621;29;20046;-71
2023/05/26 01:40:20;;;;;;;34.78;11.25;;;;;;;;;;2010399;29;20393;-71
2023/05/26 01:41:46;;;;;;;33.08;10.73;;;;;;;;;;2015535;29;20040;-71
2023/05/26 01:43:16;;;;;;;35.85;10.07;;;;;;;;;;2015664;29;20457;-71
2023/05/26 01:44:50;;;;;;;35.78;11.00;;;;;;;;;;2011397;29;20354;-71
2023/05/26 01:46:16;;;;;;;34.22;11.88;;;;;;;;;;2007531;29;20038;-71
2023/05/26 01:47:39;;;;;;;41.47;11.75;;;;;;;;;;2010735;29;20044;-71
2023/05/26 01:49:02;;;;;;;30.67;10.13;;;;;;;;;;2007443;29;20509;-71
2023/05/26 01:50:22;;;;;;;;;;;;;;;;;;2005733;29;20038;-71
2023/05/26 01:51:46;;;;;;;31.25;9.95;;;;;;;;;;2016136;29;19923;-71
2023/05/26 01:53:09;;;;;;;30.65;9.90;;;;;;;;;;2016334;29;20037;-71
2023/05/26 01:54:33;;;;;;;28.65;10.98;;;;;;;;;;2004634;29;20048;-71
2023/05/26 01:55:56;;;;;;;33.08;10.60;;;;;;;;;;2014335;29;20049;-71
2023/05/26 01:57:17;;;;;;;31.60;11.27;;;;;;;;;;2017071;29;20029;-71
2023/05/26 01:58:39;;;;;;;32.00;10.38;;;;;;;;;;2015820;29;20489;-71
2023/05/26 02:00:00;;;;;;;41.47;10.18;;;;;;;;;;2008606;29;20033;-71
2023/05/26 02:01:23;;;;;;;31.00;11.55;;;;;;;;;;2014182;29;20423;-71
2023/05/26 02:02:44;;;;;;;27.85;9.50;;;;;;;;;;2017082;29;20060;-71
2023/05/26 02:04:05;;;;;;;31.60;11.63;;;;;;;;;;2015678;29;20061;-71
2023/05/26 02:05:26;;;;;;;30.88;10.20;;;;;;;;;;2016706;29;20036;-71
2023/05/26 02:06:47;;;;;;;34.50;11.10;;;;;;;;;;2017009;29;20032;-71
2023/05/26 02:08:10;;;;;;;31.45;11.23;;;;;;;;;;2013721;29;20052;-71
2023/05/26 02:09:31;;;;;;;33.17;11.50;;;;;;;;;;2013057;29;20047;-71
2023/05/26 02:10:52;;;;;;;33.00;10.80;;;;;;;;;;2005413;29;20121;-71
2023/05/26 02:12:13;;;;;;;38.58;11.40;;;;;;;;;;2010302;29;20092;-71
2023/05/26 02:13:34;;;;;;;30.75;10.43;;;;;;;;;;2012399;29;20045;-71
2023/05/26 02:14:55;;;;;;;35.53;11.68;;;;;;;;;;2007355;29;20074;-71
2023/05/26 02:16:16;;;;;;;39.20;13.07;;;;;;;;;;2010702;29;20504;-71
2023/05/26 02:17:37;;;;;;;36.95;11.45;;;;;;;;;;2005130;29;20090;-71
2023/05/26 02:18:58;;;;;;;33.38;12.00;;;;;;;;;;2010635;29;20572;-71
2023/05/26 02:20:19;;;;;;;34.20;10.70;;;;;;;;;;2014658;29;20063;-70
2023/05/26 02:21:40;;;;;;;41.70;10.98;;;;;;;;;;2004789;29;20045;-71
2023/05/26 02:23:00;;;;;;;36.78;11.88;;;;;;;;;;2011164;29;20369;-71
2023/05/26 02:24:21;;;;;;;47.13;13.18;;;;;;;;;;2012338;29;20033;-71
2023/05/26 02:25:42;;;;;;;29.60;12.20;;;;;;;;;;2013228;29;20073;-71
2023/05/26 02:27:03;;;;;;;31.40;10.82;;;;;;;;;;2013982;29;20172;-71
2023/05/26 02:28:24;;;;;;;32.50;11.93;;;;;;;;;;2012946;29;20041;-71
2023/05/26 02:29:45;;;;;;;48.20;14.18;;;;;;;;;;2013448;29;20120;-70
2023/05/26 02:31:06;;;;;;;31.50;11.38;;;;;;;;;;2013168;29;20112;-71
2023/05/26 02:32:29;;;;;;;44.35;12.70;;;;;;;;;;2012531;29;20190;-71
2023/05/26 02:33:50;;;;;;;34.10;11.77;;;;;;;;;;2004433;29;20038;-71
2023/05/26 02:35:11;;;;;;;27.92;11.80;;;;;;;;;;2011342;29;21037;-71
2023/05/26 02:36:31;;;;;;;37.08;12.27;;;;;;;;;;2010692;29;20069;-71
2023/05/26 02:37:52;;;;;;;40.92;12.48;;;;;;;;;;2002986;29;20037;-71
2023/05/26 02:39:14;;;;;;;41.08;12.35;;;;;;;;;;2007990;29;20050;-71
2023/05/26 02:40:34;;;;;;;41.15;12.20;;;;;;;;;;2012232;29;20033;-71
2023/05/26 02:41:55;;;;;;;31.15;11.15;;;;;;;;;;2009947;29;20410;-71
2023/05/26 02:43:16;;;;;;;46.92;13.27;;;;;;;;;;2010780;29;20101;-71
2023/05/26 02:44:37;;;;;;;32.03;11.40;;;;;;;;;;2012272;29;20726;-71
2023/05/26 02:45:59;;;;;;;36.17;11.35;;;;;;;;;;2011611;29;20068;-71
2023/05/26 02:47:19;;;;;;;53.63;13.82;;;;;;;;;;2011997;29;20406;-71
2023/05/26 02:48:41;;;;;;;44.25;12.85;;;;;;;;;;2011196;29;20044;-71
2023/05/26 02:50:02;;;;;;;37.83;11.82;;;;;;;;;;2009800;29;20056;-71
2023/05/26 02:51:23;;;;;;;50.90;13.45;;;;;;;;;;2003013;29;20881;-71
2023/05/26 02:52:44;;;;;;;38.83;11.40;;;;;;;;;;2010519;29;20049;-71
2023/05/26 02:54:05;;;;;;;39.53;12.55;;;;;;;;;;2012222;29;20521;-71
2023/05/26 02:55:26;;;;;;;45.38;13.65;;;;;;;;;;2009732;29;20052;-72
2023/05/26 02:56:47;;;;;;;40.22;12.45;;;;;;;;;;2009222;29;20045;-72
2023/05/26 02:58:08;;;;;;;27.60;9.75;;;;;;;;;;2014944;29;20504;-71
2023/05/26 02:59:29;;;;;;;36.78;12.30;;;;;;;;;;2014055;29;20052;-71
2023/05/26 03:00:50;;;;;;;34.88;10.68;;;;;;;;;;2013499;29;20041;-71
2023/05/26 03:02:11;;;;;;;27.20;10.45;;;;;;;;;;2010788;29;20045;-71
2023/05/26 03:03:32;;;;;;;40.83;11.82;;;;;;;;;;2005335;29;20101;-71
2023/05/26 03:04:53;;;;;;;31.38;11.20;;;;;;;;;;2010998;29;20169;-71
2023/05/26 03:06:14;;;;;;;37.00;12.45;;;;;;;;;;2011471;29;20108;-71
2023/05/26 03:07:35;;;;;;;36.92;11.52;;;;;;;;;;2018997;29;20077;-71
2023/05/26 03:08:56;;;;;;;33.88;10.30;;;;;;;;;;2016709;29;20586;-71
2023/05/26 03:10:17;;;;;;;30.00;11.50;;;;;;;;;;2014197;29;20092;-71
2023/05/26 03:11:38;;;;;;;35.67;11.85;;;;;;;;;;2012191;29;20041;-71
2023/05/26 03:12:59;;;;;;;34.42;10.95;;;;;;;;;;2010605;29;20044;-71
2023/05/26 03:14:20;;;;;;;33.15;10.73;;;;;;;;;;2011430;29;20045;-71
2023/05/26 03:15:42;;;;;;;47.33;13.27;;;;;;;;;;2005572;29;20437;-71
2023/05/26 03:17:03;;;;;;;41.92;12.68;;;;;;;;;;2008755;29;20055;-71
2023/05/26 03:18:25;;;;;;;43.58;12.35;;;;;;;;;;2005067;29;20073;-71
2023/05/26 03:19:45;;;;;;;36.20;12.10;;;;;;;;;;2011341;29;20033;-71
2023/05/26 03:21:08;;;;;;;35.53;11.18;;;;;;;;;;2011111;29;20097;-71
2023/05/26 03:22:29;;;;;;;37.70;12.15;;;;;;;;;;2001437;29;20666;-71
2023/05/26 03:23:50;;;;;;;29.17;10.68;;;;;;;;;;2009594;29;20044;-71
2023/05/26 03:25:11;;;;;;;39.05;11.77;;;;;;;;;;2011369;29;20105;-71
2023/05/26 03:26:32;;;;;;;28.67;11.10;;;;;;;;;;2004944;29;21402;-71
2023/05/26 03:27:53;;;;;;;33.05;12.18;;;;;;;;;;2011212;29;20037;-71
2023/05/26 03:29:14;;;;;;;39.13;11.18;;;;;;;;;;2012401;29;20545;-71
2023/05/26 03:30:35;;;;;;;26.40;10.73;;;;;;;;;;2012379;29;20036;-71
2023/05/26 03:31:57;;;;;;;36.13;10.63;;;;;;;;;;2013442;29;20044;-71
2023/05/26 03:33:18;;;;;;;30.17;10.23;;;;;;;;;;2009155;29;20042;-71
2023/05/26 03:34:39;;;;;;;36.95;10.52;;;;;;;;;;2012399;29;20045;-71
2023/05/26 03:36:00;;;;;;;32.47;10.55;;;;;;;;;;2006390;29;20030;-71
2023/05/26 03:37:21;;;;;;;36.10;12.45;;;;;;;;;;2010549;29;20045;-71
2023/05/26 03:38:41;;;;;;;37.13;11.13;;;;;;;;;;2013209;29;20041;-71
2023/05/26 03:40:03;;;;;;;29.70;10.30;;;;;;;;;;2014670;29;20362;-71
2023/05/26 03:41:25;;;;;;;33.30;10.85;;;;;;;;;;2014618;29;20033;-71
2023/05/26 03:42:45;;;;;;;33.10;10.02;;;;;;;;;;2014669;29;20034;-71
2023/05/26 03:44:06;;;;;;;28.13;10.85;;;;;;;;;;2012285;29;20041;-71
2023/05/26 03:45:27;;;;;;;35.35;11.55;;;;;;;;;;2014234;29;20024;-71
2023/05/26 03:46:48;;;;;;;28.30;10.00;;;;;;;;;;2013839;29;20147;-71
2023/05/26 03:48:12;;;;;;;20.90;10.32;;;;;;;;;;2008619;29;20025;-71
2023/05/26 03:49:33;;;;;;;24.00;10.30;;;;;;;;;;2007954;29;20045;-71
2023/05/26 03:50:54;;;;;;;27.55;10.02;;;;;;;;;;2015853;29;20168;-71
2023/05/26 03:52:15;;;;;;;27.20;9.52;;;;;;;;;;2006828;29;20386;-71
2023/05/26 03:53:36;;;;;;;24.77;11.40;;;;;;;;;;2007626;29;20066;-71
2023/05/26 03:54:57;;;;;;;25.10;9.70;;;;;;;;;;2014118;29;20414;-71
2023/05/26 03:56:18;;;;;;;26.55;9.63;;;;;;;;;;2015890;29;20089;-71
2023/05/26 03:57:39;;;;;;;38.30;11.10;;;;;;;;;;2012738;29;20387;-71
2023/05/26 03:59:01;;;;;;;34.40;10.13;;;;;;;;;;2000424;29;20395;-71
2023/05/26 04:00:22;;;;;;;24.23;9.88;;;;;;;;;;2012643;29;20037;-71
2023/05/26 04:01:43;;;;;;;29.48;10.35;;;;;;;;;;2008721;29;20114;-71
2023/05/26 04:03:03;;;;;;;30.20;10.27;;;;;;;;;;2014548;29;20041;-71
2023/05/26 04:04:24;;;;;;;31.70;10.13;;;;;;;;;;2014948;29;20049;-71
2023/05/26 04:05:45;;;;;;;48.30;14.13;;;;;;;;;;2015880;29;20029;-71
2023/05/26 04:07:06;;;;;;;37.10;11.55;;;;;;;;;;2010405;29;20093;-71
2023/05/26 04:08:28;;;;;;;25.77;9.98;;;;;;;;;;2018998;29;20037;-71
2023/05/26 04:09:48;;;;;;;28.58;10.93;;;;;;;;;;2015968;29;20489;-71
2023/05/26 04:11:09;;;;;;;33.95;10.35;;;;;;;;;;2013386;29;20029;-71
2023/05/26 04:12:30;;;;;;;28.35;10.30;;;;;;;;;;2001666;29;20045;-71
2023/05/26 04:13:51;;;;;;;23.45;9.57;;;;;;;;;;1999099;29;20474;-71
2023/05/26 04:15:12;;;;;;;30.25;11.43;;;;;;;;;;2013752;29;20037;-71
2023/05/26 04:16:33;;;;;;;26.23;10.50;;;;;;;;;;2007881;29;20122;-71
2023/05/26 04:17:54;;;;;;;37.47;10.75;;;;;;;;;;2006848;29;20106;-71
2023/05/26 04:19:15;;;;;;;30.50;10.27;;;;;;;;;;2012883;29;20091;-71
2023/05/26 04:20:36;;;;;;;31.02;10.35;;;;;;;;;;2015610;29;20093;-71
2023/05/26 04:21:57;;;;;;;24.48;10.35;;;;;;;;;;2012939;29;20396;-71
2023/05/26 04:23:18;;;;;;;28.77;11.25;;;;;;;;;;2006471;29;20041;-71
2023/05/26 04:24:39;;;;;;;31.55;9.98;;;;;;;;;;2013033;29;20595;-70
2023/05/26 04:26:00;;;;;;;35.10;11.32;;;;;;;;;;2015165;29;20089;-71
2023/05/26 04:27:24;;;;;;;33.83;10.93;;;;;;;;;;2013420;29;20041;-71
2023/05/26 04:28:45;;;;;;;29.20;9.85;;;;;;;;;;2002866;29;20034;-71
2023/05/26 04:30:07;;;;;;;35.97;11.57;;;;;;;;;;2009271;29;20021;-71
2023/05/26 04:31:30;;;;;;;33.55;11.23;;;;;;;;;;2014279;29;20481;-71
2023/05/26 04:32:51;;;;;;;30.60;11.00;;;;;;;;;;2014644;29;20070;-71
2023/05/26 04:34:12;;;;;;;35.85;12.52;;;;;;;;;;2003092;29;20574;-71
2023/05/26 04:35:33;;;;;;;34.00;11.48;;;;;;;;;;2002137;29;20045;-70
2023/05/26 04:36:54;;;;;;;35.47;12.03;;;;;;;;;;2007705;29;20678;-71
2023/05/26 04:38:15;;;;;;;28.58;11.77;;;;;;;;;;2016138;29;20398;-71
2023/05/26 04:39:36;;;;;;;44.25;13.40;;;;;;;;;;2012143;29;20049;-71
2023/05/26 04:40:57;;;;;;;40.90;13.32;;;;;;;;;;2009862;29;20057;-70
2023/05/26 04:42:19;;;;;;;50.83;15.90;;;;;;;;;;2006591;29;20104;-71
2023/05/26 04:43:40;;;;;;;50.13;13.88;;;;;;;;;;2005321;29;20048;-71
2023/05/26 04:45:02;;;;;;;40.53;10.75;;;;;;;;;;2014421;29;20100;-70
2023/05/26 04:46:23;;;;;;;29.00;11.82;;;;;;;;;;2014763;29;20062;-71
2023/05/26 04:47:44;;;;;;;48.53;14.85;;;;;;;;;;2011009;29;20051;-71
2023/05/26 04:49:07;;;;;;;32.88;10.95;;;;;;;;;;2008673;29;20037;-71
2023/05/26 04:50:28;;;;;;;;;;;;;;;;;;2004738;29;20178;-71
2023/05/26 04:51:56;;;;;;;37.83;13.02;;;;;;;;;;2009513;29;19919;-70
2023/05/26 04:53:17;;;;;;;30.38;10.82;;;;;;;;;;2011693;29;20133;-71
2023/05/26 04:54:40;;;;;;;37.25;11.60;;;;;;;;;;2006736;29;20074;-71
2023/05/26 04:56:02;;;;;;;32.22;11.15;;;;;;;;;;2006078;29;20074;-71
2023/05/26 04:57:23;;;;;;;28.73;10.85;;;;;;;;;;2014560;29;20496;-71
2023/05/26 04:58:44;;;;;;;32.85;10.77;;;;;;;;;;2002492;29;20046;-71
2023/05/26 05:00:06;;;;;;;28.42;10.40;;;;;;;;;;2010969;29;20037;-71
2023/05/26 05:01:26;;;;;;;35.38;11.45;;;;;;;;;;2015145;29;20033;-71
2023/05/26 05:02:47;;;;;;;37.97;11.30;;;;;;;;;;2014728;29;20568;-71
2023/05/26 05:04:08;;;;;;;44.33;13.38;;;;;;;;;;2006362;29;20042;-72
2023/05/26 05:05:29;;;;;;;37.25;10.95;;;;;;;;;;2010920;29;20028;-72
2023/05/26 05:06:50;;;;;;;39.78;13.30;;;;;;;;;;2013715;29;20831;-72
2023/05/26 05:08:11;;;;;;;41.58;13.73;;;;;;;;;;2007290;29;20097;-72
2023/05/26 05:09:32;;;;;;;37.03;12.10;;;;;;;;;;2011436;29;20492;-72
2023/05/26 05:10:53;;;;;;;36.33;10.45;;;;;;;;;;2013118;29;20049;-72
2023/05/26 05:12:14;;;;;;;51.17;14.85;;;;;;;;;;2011623;29;20532;-73
2023/05/26 05:13:35;;;;;;;32.92;11.38;;;;;;;;;;2012680;29;20094;-73
2023/05/26 05:14:56;;;;;;;30.27;10.75;;;;;;;;;;2012146;29;20466;-73
2023/05/26 05:16:16;;;;;;;27.80;10.60;;;;;;;;;;2010600;29;20105;-73
2023/05/26 05:17:38;;;;;;;44.08;12.85;;;;;;;;;;2010141;29;20207;-73
2023/05/26 05:18:59;;;;;;;31.45;11.25;;;;;;;;;;2014114;29;20036;-73
2023/05/26 05:20:19;;;;;;;36.70;11.43;;;;;;;;;;2017100;29;20393;-73
2023/05/26 05:21:40;;;;;;;35.17;11.55;;;;;;;;;;2015544;29;20139;-73
2023/05/26 05:23:02;;;;;;;44.72;12.80;;;;;;;;;;2005691;29;20026;-73
2023/05/26 05:24:22;;;;;;;33.80;10.50;;;;;;;;;;2012428;29;20041;-73
2023/05/26 05:25:43;;;;;;;37.28;13.55;;;;;;;;;;2006407;29;20445;-73
2023/05/26 05:27:05;;;;;;;41.25;12.02;;;;;;;;;;2001579;29;20029;-73
2023/05/26 05:28:26;;;;;;;40.97;13.45;;;;;;;;;;2009466;29;20045;-73
2023/05/26 05:29:47;;;;;;;36.42;11.65;;;;;;;;;;2011807;29;20037;-74
2023/05/26 05:31:08;;;;;;;29.85;10.35;;;;;;;;;;2011804;29;20030;-73
2023/05/26 05:32:29;;;;;;;31.58;12.00;;;;;;;;;;2011740;29;20049;-73
2023/05/26 05:33:49;;;;;;;39.35;12.68;;;;;;;;;;2013772;29;20041;-73
2023/05/26 05:35:10;;;;;;;36.78;11.23;;;;;;;;;;2012697;29;20051;-73
2023/05/26 05:36:33;;;;;;;37.15;11.10;;;;;;;;;;2015067;29;20128;-72
2023/05/26 05:37:54;;;;;;;40.88;13.85;;;;;;;;;;2013611;29;20179;-73
2023/05/26 05:39:15;;;;;;;29.17;10.23;;;;;;;;;;2013778;29;20040;-72
2023/05/26 05:40:36;;;;;;;62.28;15.15;;;;;;;;;;2009679;29;20444;-72
2023/05/26 05:41:56;;;;;;;37.45;12.02;;;;;;;;;;2012336;29;20158;-73
2023/05/26 05:43:17;;;;;;;43.58;12.02;;;;;;;;;;2009339;29;20090;-73
2023/05/26 05:44:38;;;;;;;21.88;9.73;;;;;;;;;;2014397;29;20069;-73
2023/05/26 05:45:59;;;;;;;38.25;12.07;;;;;;;;;;2011376;29;20033;-72
2023/05/26 05:47:20;;;;;;;41.88;12.10;;;;;;;;;;2011103;29;20405;-73
2023/05/26 05:48:42;;;;;;;36.05;11.63;;;;;;;;;;2013874;29;20120;-73
2023/05/26 05:50:03;;;;;;;34.70;12.13;;;;;;;;;;2012623;29;20044;-73
2023/05/26 05:51:24;;;;;;;33.30;11.05;;;;;;;;;;2013694;29;20385;-73
2023/05/26 05:52:45;;;;;;;38.17;11.70;;;;;;;;;;2006114;29;20045;-73
2023/05/26 05:54:06;;;;;;;41.65;11.68;;;;;;;;;;2004401;29;20075;-73
2023/05/26 05:55:27;;;;;;;35.08;10.77;;;;;;;;;;2005332;29;20033;-73
2023/05/26 05:56:48;;;;;;;29.50;10.48;;;;;;;;;;2016433;29;20036;-73
2023/05/26 05:58:08;;;;;;;28.90;10.77;;;;;;;;;;2008461;29;20466;-73
2023/05/26 05:59:29;;;;;;;38.40;12.43;;;;;;;;;;2012547;29;20033;-72
2023/05/26 06:00:50;;;;;;;28.17;10.48;;;;;;;;;;2016977;29;20037;-74
2023/05/26 06:02:11;;;;;;;29.13;10.52;;;;;;;;;;2014998;29;20038;-73
2023/05/26 06:03:32;;;;;;;35.60;10.98;;;;;;;;;;2006980;29;20549;-73
2023/05/26 06:04:53;;;;;;;41.10;10.98;;;;;;;;;;2011068;29;20048;-73
2023/05/26 06:06:15;;;;;;;31.73;11.55;;;;;;;;;;2016354;29;20029;-74
2023/05/26 06:07:36;;;;;;;;;;;;;;;;;;2006924;29;20085;-74
2023/05/26 06:08:57;;;;;;;30.40;9.63;;;;;;;;;;2015586;29;19908;-73
2023/05/26 06:10:17;;;;;;;32.55;10.52;;;;;;;;;;2008172;29;20037;-74
2023/05/26 06:11:38;;;;;;;34.53;10.88;;;;;;;;;;2003450;29;20041;-72
2023/05/26 06:12:59;;;;;;;32.85;10.52;;;;;;;;;;2014319;29;20029;-72
2023/05/26 06:14:20;;;;;;;31.85;11.25;;;;;;;;;;2015829;29;20041;-72
2023/05/26 06:15:41;;;;;;;38.42;10.40;;;;;;;;;;2007441;29;20038;-72
2023/05/26 06:17:03;;;;;;;25.45;10.15;;;;;;;;;;2011736;29;20516;-72
2023/05/26 06:18:23;;;;;;;33.15;11.02;;;;;;;;;;2014481;29;20041;-70
2023/05/26 06:19:44;;;;;;;28.33;9.90;;;;;;;;;;2016983;29;20044;-70
2023/05/26 06:21:05;;;;;;;35.03;9.98;;;;;;;;;;2010630;29;20025;-70
2023/05/26 06:22:26;;;;;;;34.90;10.15;;;;;;;;;;2007083;29;20489;-70
2023/05/26 06:23:48;;;;;;;39.92;11.73;;;;;;;;;;2012177;29;20429;-68
2023/05/26 06:25:09;;;;;;;41.10;12.85;;;;;;;;;;2008636;29;20068;-72
2023/05/26 06:26:30;;;;;;;31.88;11.48;;;;;;;;;;2018571;29;20032;-72
2023/05/26 06:27:51;;;;;;;32.78;11.18;;;;;;;;;;2015555;29;20029;-73
2023/05/26 06:29:11;;;;;;;38.17;12.18;;;;;;;;;;2013600;29;20397;-73
2023/05/26 06:30:32;;;;;;;37.63;11.73;;;;;;;;;;2010496;29;20033;-71
2023/05/26 06:31:53;;;;;;;32.25;11.52;;;;;;;;;;2011062;29;20036;-73
2023/05/26 06:33:14;;;;;;;36.13;10.27;;;;;;;;;;2015066;29;20404;-72
2023/05/26 06:34:35;;;;;;;32.58;11.18;;;;;;;;;;2010653;29;20045;-72
2023/05/26 06:35:56;;;;;;;39.08;11.18;;;;;;;;;;2008665;29;20101;-72
2023/05/26 06:37:17;;;;;;;27.45;9.93;;;;;;;;;;2021361;29;20403;-72
2023/05/26 06:38:38;;;;;;;26.40;10.32;;;;;;;;;;2015970;29;20410;-71
2023/05/26 06:39:59;;;;;;;37.67;11.55;;;;;;;;;;2015105;29;20037;-71
2023/05/26 06:41:20;;;;;;;35.50;11.68;;;;;;;;;;2012438;29;20037;-72
2023/05/26 06:42:41;;;;;;;31.08;10.45;;;;;;;;;;2014429;29;20037;-71
2023/05/26 06:44:02;;;;;;;29.75;10.50;;;;;;;;;;2011870;29;20052;-73
2023/05/26 06:45:23;;;;;;;32.33;11.30;;;;;;;;;;2012206;29;20548;-73
2023/05/26 06:46:44;;;;;;;33.00;11.25;;;;;;;;;;2015692;29;20076;-72
2023/05/26 06:48:05;;;;;;;36.72;10.88;;;;;;;;;;2015596;29;20033;-71
2023/05/26 06:49:25;;;;;;;32.03;10.35;;;;;;;;;;2017057;29;20033;-72
2023/05/26 06:50:46;;;;;;;43.83;11.98;;;;;;;;;;2007895;29;20037;-71
2023/05/26 06:52:07;;;;;;;32.33;12.10;;;;;;;;;;2007075;29;20053;-71
2023/05/26 06:53:28;;;;;;;30.30;9.77;;;;;;;;;;2013316;29;20124;-70
2023/05/26 06:54:49;;;;;;;31.75;10.30;;;;;;;;;;2009520;29;20068;-71
2023/05/26 06:56:10;;;;;;;31.70;9.93;;;;;;;;;;2015599;29;20497;-75
2023/05/26 06:57:31;;;;;;;35.67;9.45;;;;;;;;;;2014348;29;20482;-76
2023/05/26 06:58:52;;;;;;;34.65;10.70;;;;;;;;;;2007098;29;20037;-74
2023/05/26 07:00:14;;;;;;;36.25;10.95;;;;;;;;;;2010786;29;20029;-74
2023/05/26 07:01:35;;;;;;;31.60;10.60;;;;;;;;;;2014392;29;20029;-74
2023/05/26 07:02:56;;;;;;;25.90;9.68;;;;;;;;;;2013897;29;20045;-74
2023/05/26 07:04:17;;;;;;;32.28;11.27;;;;;;;;;;2016090;29;20428;-75
2023/05/26 07:05:40;;;;;;;29.50;9.85;;;;;;;;;;2008250;29;20358;-76
2023/05/26 07:07:01;;;;;;;30.27;9.90;;;;;;;;;;2012021;29;20477;-77
2023/05/26 07:08:22;;;;;;;26.95;10.30;;;;;;;;;;2013193;29;20037;-75
2023/05/26 07:09:43;;;;;;;26.35;9.50;;;;;;;;;;2017850;29;20028;-74
2023/05/26 07:11:05;;;;;;;35.47;10.52;;;;;;;;;;2014019;29;20033;-74
2023/05/26 07:12:25;;;;;;;25.73;9.07;;;;;;;;;;2013567;29;20040;-70
2023/05/26 07:13:49;;;;;;;25.83;9.77;;;;;;;;;;2020304;29;20439;-76
2023/05/26 07:15:10;;;;;;;26.95;8.90;;;;;;;;;;2017332;29;20060;-77
2023/05/26 07:16:31;;;;;;;34.28;10.30;;;;;;;;;;2006991;29;20041;-74
2023/05/26 07:17:52;;;;;;;30.65;9.73;;;;;;;;;;2008809;29;20060;-74
2023/05/26 07:19:13;;;;;;;30.30;9.20;;;;;;;;;;2016796;29;20442;-74
2023/05/26 07:20:34;;;;;;;29.70;9.40;;;;;;;;;;2009890;29;20038;-73
2023/05/26 07:21:55;;;;;;;33.80;10.45;;;;;;;;;;2014140;29;20044;-77
2023/05/26 07:23:16;;;;;;;30.67;9.85;;;;;;;;;;2011166;29;20052;-76
2023/05/26 07:24:36;;;;;;;22.80;8.73;;;;;;;;;;2018955;29;20064;-75
2023/05/26 07:25:57;;;;;;;20.83;8.43;;;;;;;;;;2016938;29;20025;-76
2023/05/26 07:27:18;;;;;;;28.17;9.88;;;;;;;;;;2015841;29;20528;-75
2023/05/26 07:28:41;;;;;;;28.13;9.63;;;;;;;;;;2024429;29;20044;-76
2023/05/26 07:30:01;;;;;;;;;;;;;;;;;;2022317;29;20029;-76
2023/05/26 07:31:22;;;;;;;29.00;11.65;;;;;;;;;;2018020;29;19907;-73
2023/05/26 07:32:43;;;;;;;29.20;9.35;;;;;;;;;;2018335;29;20037;-73
2023/05/26 07:34:04;;;;;;;35.15;10.10;;;;;;;;;;2018141;29;20032;-72
2023/05/26 07:35:25;;;;;;;27.95;9.60;;;;;;;;;;2017206;29;20060;-73
2023/05/26 07:36:46;;;;;;;31.33;9.93;;;;;;;;;;2011593;29;20508;-72
2023/05/26 07:38:07;;;;;;;25.00;9.52;;;;;;;;;;2010364;29;20060;-73
2023/05/26 07:39:28;;;;;;;23.65;8.98;;;;;;;;;;2020735;29;20041;-73
2023/05/26 07:40:49;;;;;;;23.70;8.82;;;;;;;;;;2015000;29;20060;-72
2023/05/26 07:42:10;;;;;;;25.15;9.25;;;;;;;;;;2006444;29;20040;-72
2023/05/26 07:43:31;;;;;;;22.70;8.90;;;;;;;;;;2015294;29;20373;-75
2023/05/26 07:44:52;;;;;;;31.45;9.60;;;;;;;;;;2018838;29;20096;-73
2023/05/26 07:46:12;;;;;;;27.00;9.77;;;;;;;;;;2015048;29;20026;-77
2023/05/26 07:47:34;;;;;;;22.83;9.35;;;;;;;;;;2008407;29;20041;-73
2023/05/26 07:48:55;;;;;;;30.10;8.75;;;;;;;;;;2009844;29;20037;-73
2023/05/26 07:50:16;;;;;;;28.00;8.77;;;;;;;;;;2004185;29;20037;-72
2023/05/26 07:51:37;;;;;;;38.05;9.48;;;;;;;;;;2014281;29;20425;-72
2023/05/26 07:52:58;;;;;;;32.03;8.73;;;;;;;;;;2020304;29;20047;-76
2023/05/26 07:54:19;;;;;;;27.55;8.65;;;;;;;;;;2016889;29;20037;-75
2023/05/26 07:55:40;;;;;;;25.13;8.30;;;;;;;;;;2014798;29;20466;-74
2023/05/26 07:57:01;;;;;;;29.98;9.27;;;;;;;;;;2010848;29;20114;-72
2023/05/26 07:58:22;;;;;;;24.33;7.70;;;;;;;;;;2009229;29;20025;-72
2023/05/26 07:59:43;;;;;;;23.80;9.10;;;;;;;;;;2001243;29;20045;-72
2023/05/26 08:01:06;;;;;;;29.15;8.65;;;;;;;;;;2013864;29;20033;-73
2023/05/26 08:02:27;;;;;;;27.90;7.90;;;;;;;;;;2014567;29;20056;-69
2023/05/26 08:03:48;;;;;;;19.73;8.40;;;;;;;;;;2020221;29;20095;-68
2023/05/26 08:05:09;;;;;;;28.80;9.07;;;;;;;;;;2020499;29;20120;-70
2023/05/26 08:06:31;;;;;;;20.65;7.78;;;;;;;;;;2018495;29;20025;-69
2023/05/26 08:07:52;;;;;;;27.00;7.95;;;;;;;;;;2011746;29;20041;-71
2023/05/26 08:09:12;;;;;;;31.63;8.43;;;;;;;;;;2023398;29;20025;-70
2023/05/26 08:10:35;;;;;;;26.60;8.40;;;;;;;;;;2017804;29;20029;-72
2023/05/26 08:11:56;;;;;;;19.17;8.23;;;;;;;;;;2010629;29;20377;-72
2023/05/26 08:13:17;;;;;;;19.92;7.53;;;;;;;;;;2009766;29;20046;-72
2023/05/26 08:14:38;;;;;;;24.00;8.30;;;;;;;;;;2016512;29;20033;-72
2023/05/26 08:15:58;;;;;;;24.50;7.95;;;;;;;;;;2018791;29;20437;-71
2023/05/26 08:17:19;;;;;;;24.20;8.15;;;;;;;;;;2017456;29;20128;-71
2023/05/26 08:18:40;;;;;;;25.10;9.05;;;;;;;;;;2012026;29;20041;-71
2023/05/26 08:20:02;;;;;;;22.45;6.85;;;;;;;;;;2017644;29;20122;-72
2023/05/26 08:21:23;;;;;;;24.83;8.55;;;;;;;;;;2017805;29;20109;-71
2023/05/26 08:22:44;;;;;;;24.65;8.45;;;;;;;;;;2015413;29;20033;-73
2023/05/26 08:24:05;;;;;;;26.33;8.27;;;;;;;;;;2017484;29;20040;-71
2023/05/26 08:25:26;;;;;;;25.20;8.13;;;;;;;;;;2016423;29;20072;-71
2023/05/26 08:26:47;;;;;;;24.73;8.88;;;;;;;;;;2017206;29;20024;-72
2023/05/26 08:28:08;;;;;;;26.35;8.52;;;;;;;;;;2019753;29;20045;-71
2023/05/26 08:29:29;;;;;;;19.15;7.20;;;;;;;;;;2022618;29;20036;-72
2023/05/26 08:30:50;;;;;;;26.17;7.65;;;;;;;;;;2017773;29;20423;-71
2023/05/26 08:32:11;;;;;;;20.13;7.40;;;;;;;;;;2013591;29;20021;-72
2023/05/26 08:33:31;;;;;;;26.65;7.95;;;;;;;;;;2016827;29;20442;-70
2023/05/26 08:34:52;;;;;;;28.35;9.38;;;;;;;;;;2015717;29;20063;-72
2023/05/26 08:36:13;;;;;;;22.05;8.13;;;;;;;;;;2015774;29;20101;-72
2023/05/26 08:37:34;;;;;;;20.67;8.48;;;;;;;;;;2019037;29;20124;-72
2023/05/26 08:38:55;;;;;;;22.83;7.38;;;;;;;;;;2009976;29;20120;-71
2023/05/26 08:40:16;;;;;;;25.90;8.30;;;;;;;;;;2017679;29;20033;-71
2023/05/26 08:41:59;;;;;;;28.27;9.38;;;;;;;;;;2017841;29;20351;-75
2023/05/26 08:43:22;;;;;;;24.95;8.45;;;;;;;;;;2015602;29;20041;-72
2023/05/26 08:44:43;;;;;;;28.38;8.50;;;;;;;;;;2012717;29;20059;-72
2023/05/26 08:46:04;;;;;;;19.93;8.17;;;;;;;;;;2011753;29;20164;-72
2023/05/26 08:47:26;;;;;;;20.73;8.18;;;;;;;;;;2011438;29;20796;-73
2023/05/26 08:48:48;;;;;;;24.90;8.63;;;;;;;;;;2021651;29;20356;-72
2023/05/26 08:50:09;;;;;;;21.73;8.02;;;;;;;;;;2022067;29;20037;-72
2023/05/26 08:51:31;;;;;;;30.80;7.95;;;;;;;;;;2017191;29;20036;-74
2023/05/26 08:52:52;;;;;;;;;;;;;;;;;;2020457;29;20056;-72
2023/05/26 08:54:13;;;;;;;25.38;9.43;;;;;;;;;;2023857;29;19907;-72
2023/05/26 08:55:34;;;;;;;26.10;9.02;;;;;;;;;;2009272;29;20362;-74
2023/05/26 08:56:57;;;;;;;21.13;7.80;;;;;;;;;;2010872;29;20057;-74
2023/05/26 08:58:18;;;;;;;27.17;8.93;;;;;;;;;;2016502;29;20040;-73
2023/05/26 08:59:39;;;;;;;20.65;8.30;;;;;;;;;;2016016;29;20049;-74